Latest Weather Observations for Cape Moreton

IDQ60901

Issued at 5:11 pm EST Saturday 28 January 2023 (issued every 10 minutes, with the page automatically refreshed every 10 minutes)

About weather observations | Map of Brisbane area stations | Latest observations for Brisbane area | Other Formats
Station Details ID: 040043 Name: CAPE MORETON LIGHTHOUSE Lat: -27.03 Lon: 153.47 Height: 99.9 m
Data from the previous 72 hours. | See also: Recent months at Cape Moreton
Date/Time
EST
Temp
°C
App
Temp
°C
Dew
Point
°C
Rel
Hum
%
Delta-T
°C
Wind Press
QNH
hPa
Press
MSL
hPa
Rain since
9am
mm
Dir  Spd
km/h
Gust
km/h
Spd
kts
Gust
kts
28/05:00pm 26.6 27.4 21.8 75 3.2 E 20 26 11 14 1012.9 1012.3 0.0
28/04:30pm 27.0 27.7 22.2 75 3.2 E 22 28 12 15 1012.3 1011.8 0.0
28/04:00pm 26.9 27.1 22.1 75 3.2 E 24 30 13 16 1012.4 1011.9 0.0
28/03:30pm 27.0 28.0 22.2 75 3.2 E 20 26 11 14 1012.4 1011.9 0.0
28/03:00pm 26.9 28.2 22.3 76 3.1 E 19 24 10 13 1012.5 1012.0 0.0
28/02:30pm 27.1 28.4 22.3 75 3.2 E 19 22 10 12 1012.8 1012.2 0.0
28/02:00pm 28.0 29.2 22.5 72 3.7 E 20 24 11 13 1013.0 1012.4 0.0
28/01:30pm 28.2 29.8 22.2 70 4.1 ENE 17 20 9 11 1013.2 1012.6 0.0
28/01:00pm 28.1 29.9 21.9 69 4.2 ENE 15 19 8 10 1013.6 1013.0 0.0
28/12:30pm 28.8 31.2 22.3 68 4.4 ENE 13 17 7 9 1014.0 1013.4 0.0
28/12:00pm 28.6 31.0 22.3 68 4.3 ENE 13 19 7 10 1014.1 1013.5 0.0
28/11:30am 28.9 31.4 22.4 68 4.4 NE 13 17 7 9 1014.3 1013.7 0.0
28/11:00am 29.1 31.5 22.3 66 4.6 NE 13 17 7 9 1014.7 1014.1 0.0
28/10:30am 29.3 32.9 23.7 72 3.9 NNE 11 19 6 10 1014.8 1014.2 0.0
28/10:00am 26.9 29.7 22.3 76 3.1 NNW 11 13 6 7 1014.8 1014.2 0.0
28/09:30am 26.8 29.0 21.8 74 3.4 NW 13 20 7 11 1015.0 1014.4 0.0
28/09:00am 27.4 30.9 22.1 73 3.6 NW 7 9 4 5 1015.1 1014.5 0.0
28/08:30am 26.5 29.7 21.3 73 3.5 NNW 6 9 3 5 1015.3 1014.7 0.0
28/08:00am 27.6 31.7 23.2 77 3.0 ESE 7 9 4 5 1015.1 1014.5 0.0
28/07:30am 27.6 31.3 23.2 77 3.0 SE 9 13 5 7 1014.9 1014.3 0.0
28/07:00am 26.2 30.9 22.7 81 2.4 SSE 2 9 1 5 1014.7 1014.1 0.0
28/06:30am 24.8 29.0 21.7 83 2.1 NE 2 7 1 4 1014.2 1013.6 0.0
28/06:00am 23.8 26.7 21.1 85 1.8 NW 7 9 4 5 1013.6 1013.0 0.0
28/05:30am 23.5 26.0 21.0 86 1.6 NNE 9 13 5 7 1013.5 1012.9 0.0
28/05:00am 23.4 25.6 21.1 87 1.5 N 11 15 6 8 1013.0 1012.4 0.0
28/04:30am 23.6 27.1 21.9 90 1.1 WSW 6 7 3 4 1012.9 1012.3 0.0
28/04:00am 23.6 26.5 22.4 93 0.8 SSW 11 13 6 7 1012.4 1011.9 0.0
28/03:30am 23.8 26.8 22.6 93 0.8 SSW 11 13 6 7 1012.7 1012.1 0.0
28/03:00am 24.1 27.6 22.9 93 0.8 SSE 9 13 5 7 1013.0 1012.4 0.0
28/02:30am 24.2 28.1 23.0 93 0.8 S 7 9 4 5 1012.8 1012.2 0.0
28/02:00am 24.2 28.3 23.0 93 0.8 NNW 6 7 3 4 1012.5 1012.0 0.0
28/01:30am 24.3 28.9 23.1 93 0.8 E 4 6 2 3 1012.3 1011.8 0.0
28/01:00am 24.4 28.3 23.0 92 0.9 NE 7 9 4 5 1012.7 1012.1 0.0
28/12:30am 24.3 28.4 22.9 92 0.9 SE 6 7 3 4 1013.0 1012.4 0.0
28/12:00am 24.5 29.8 23.1 92 1.0 CALM 0 6 0 3 1013.6 1013.0 0.0
 
Date/Time
EST
Temp
°C
App
Temp
°C
Dew
Point
°C
Rel
Hum
%
Delta-T
°C
Wind Press
QNH
hPa
Press
MSL
hPa
Rain since
9am
mm
Dir  Spd
km/h
Gust
km/h
Spd
kts
Gust
kts
27/11:30pm 24.6 29.9 23.0 91 1.1 CALM 0 0 0 0 1013.9 1013.3 0.0
27/11:00pm 24.7 30.0 23.1 91 1.1 CALM 0 0 0 0 1014.3 1013.7 0.0
27/10:30pm 24.6 28.7 23.0 91 1.1 NNW 6 6 3 3 1014.4 1013.8 0.0
27/10:00pm 24.6 29.1 23.0 91 1.1 N 4 6 2 3 1014.3 1013.7 0.0
27/09:30pm 24.6 27.5 23.2 92 1.0 N 13 17 7 9 1013.9 1013.3 0.0
27/09:00pm 24.7 27.9 23.1 91 1.1 N 11 15 6 8 1013.9 1013.3 0.0
27/08:30pm 24.8 27.6 23.0 90 1.2 N 13 17 7 9 1014.2 1013.6 0.0
27/08:00pm 25.0 26.7 23.1 89 1.3 N 19 26 10 14 1013.8 1013.2 0.0
27/07:30pm 25.0 26.0 22.1 84 1.9 N 20 28 11 15 1013.5 1012.9 0.0
27/07:00pm 25.0 25.7 22.3 85 1.8 NNE 22 32 12 17 1013.1 1012.5 0.0
27/06:30pm 25.0 25.9 22.7 87 1.6 NE 22 30 12 16 1012.9 1012.3 0.0
27/06:00pm 25.2 27.0 23.3 89 1.3 E 19 22 10 12 1012.5 1012.0 0.0
27/05:30pm 25.3 29.2 23.0 87 1.6 ESE 7 11 4 6 1012.9 1012.3 0.0
27/05:00pm 25.5 29.3 22.8 85 1.8 SE 7 9 4 5 1012.8 1012.2 0.0
27/04:30pm 26.0 29.7 23.3 85 1.8 E 9 11 5 6 1012.9 1012.3 0.0
27/04:00pm 26.9 30.7 24.0 84 2.0 E 11 13 6 7 1012.9 1012.3 0.0
27/03:30pm 26.9 31.6 24.0 84 2.0 E 6 9 3 5 1012.9 1012.3 0.0
27/03:00pm 26.9 30.8 23.6 82 2.3 NE 9 13 5 7 1013.0 1012.4 0.0
27/02:30pm 27.1 30.8 23.3 80 2.6 ENE 9 13 5 7 1013.3 1012.7 0.0
27/02:00pm 27.4 30.9 23.6 80 2.6 SE 11 15 6 8 1013.8 1013.2 0.0
27/01:30pm 27.5 29.4 23.7 80 2.6 SSE 20 28 11 15 1013.2 1012.6 0.0
27/01:00pm 28.1 31.4 23.9 78 2.9 SSW 13 20 7 11 1014.1 1013.5 0.0
27/12:30pm 27.3 30.9 23.7 81 2.5 W 11 17 6 9 1014.5 1013.9 0.0
27/12:00pm 27.3 32.4 24.0 82 2.3 E 4 7 2 4 1014.8 1014.2 0.0
27/11:30am 27.0 31.3 23.7 82 2.3 ESE 7 11 4 6 1014.8 1014.2 0.0
27/11:00am 26.7 30.6 23.6 83 2.1 SSE 9 11 5 6 1015.2 1014.6 0.0
27/10:30am 26.3 30.1 23.4 84 2.0 SE 9 13 5 7 1015.0 1014.4 0.0
27/10:00am 26.5 29.9 23.4 83 2.1 ESE 11 13 6 7 1015.2 1014.6 0.0
27/09:30am 26.1 28.9 23.6 86 1.7 SE 15 17 8 9 1015.3 1014.7 0.0
27/09:00am 26.2 29.1 23.1 83 2.1 SSE 13 20 7 11 1015.7 1015.2 0.0
27/08:30am 26.1 29.2 22.8 82 2.2 SSE 11 15 6 8 1015.7 1015.2 0.0
27/08:00am 25.7 29.4 22.6 83 2.1 WSW 7 15 4 8 1015.7 1015.2 0.0
27/07:30am 25.5 28.1 22.6 84 2.0 W 13 17 7 9 1015.4 1014.9 0.0
27/07:00am 25.1 25.5 22.4 85 1.8 NW 24 33 13 18 1014.9 1014.3 0.0
27/06:30am 24.9 25.1 22.0 84 1.9 NW 24 32 13 17 1014.3 1013.7 0.0
27/06:00am 24.7 25.0 21.6 83 2.1 NNW 22 28 12 15 1014.0 1013.4 0.0
27/05:30am 24.7 24.9 22.0 85 1.8 NNW 24 32 13 17 1013.8 1013.2 0.0
27/05:00am 24.7 25.4 22.2 86 1.7 NNW 22 30 12 16 1013.5 1012.9 0.0
27/04:30am 24.7 25.5 22.4 87 1.5 NNW 22 32 12 17 1013.2 1012.6 0.0
27/04:00am 24.8 25.7 22.7 88 1.4 NNW 22 32 12 17 1012.7 1012.1 0.0
27/03:30am 24.6 25.1 22.7 89 1.3 NNW 24 33 13 18 1012.2 1011.7 0.0
27/03:00am 24.7 25.7 22.9 90 1.2 NNW 22 30 12 16 1012.1 1011.6 0.0
27/02:30am 24.6 24.8 22.8 90 1.2 NNW 26 35 14 19 1012.4 1011.9 0.0
27/02:00am 24.7 24.2 22.9 90 1.2 NNW 30 39 16 21 1012.5 1012.0 0.0
27/01:30am 24.9 26.0 23.1 90 1.2 NW 22 32 12 17 1013.1 1012.5 0.0
27/01:00am 24.9 24.9 23.0 89 1.3 NNW 28 33 15 18 1013.2 1012.6 0.0
27/12:30am 25.1 26.3 23.2 89 1.3 NNW 22 32 12 17 1013.5 1012.9 0.0
27/12:00am 25.1 26.7 23.2 89 1.3 NNW 20 30 11 16 1013.9 1013.3 0.0
 
Date/Time
EST
Temp
°C
App
Temp
°C
Dew
Point
°C
Rel
Hum
%
Delta-T
°C
Wind Press
QNH
hPa
Press
MSL
hPa
Rain since
9am
mm
Dir  Spd
km/h
Gust
km/h
Spd
kts
Gust
kts
26/11:30pm 25.2 26.5 23.4 90 1.2 NNW 22 30 12 16 1014.1 1013.5 0.0
26/11:00pm 25.1 25.9 23.2 89 1.3 NNW 24 30 13 16 1014.1 1013.5 0.0
26/10:30pm 25.2 26.3 23.1 88 1.4 N 22 32 12 17 1014.1 1013.5 0.0
26/10:00pm 25.2 25.6 23.1 88 1.4 N 26 33 14 18 1014.1 1013.5 0.0
26/09:30pm 25.3 25.3 23.0 87 1.6 N 28 35 15 19 1014.0 1013.4 0.0
26/09:00pm 25.3 25.3 23.0 87 1.6 N 28 35 15 19 1013.9 1013.3 0.0
26/08:30pm 25.2 25.0 22.7 86 1.7 N 28 39 15 21 1013.7 1013.1 0.0
26/08:00pm 25.3 25.9 22.8 86 1.7 N 24 35 13 19 1013.5 1012.9 0.0
26/07:30pm 25.3 26.7 22.8 86 1.7 N 20 28 11 15 1013.6 1013.0 0.0
26/07:00pm 25.4 26.2 22.5 84 2.0 N 22 30 12 16 1013.4 1012.8 0.0
26/06:30pm 25.6 26.1 22.7 84 2.0 NNE 24 33 13 18 1013.1 1012.5 0.0
26/06:00pm 25.7 26.2 22.6 83 2.1 NNE 24 35 13 19 1012.8 1012.2 0.0
26/05:30pm 25.8 26.7 22.7 83 2.1 NNE 22 30 12 16 1012.5 1012.0 0.0
26/05:00pm 26.6 27.1 22.7 79 2.6 NNE 24 33 13 18 1012.2 1011.7 0.0
26/04:30pm 26.5 27.6 23.0 81 2.4 NNE 22 32 12 17 1012.0 1011.5 0.0
26/04:00pm 26.7 27.4 23.0 80 2.5 NE 24 30 13 16 1012.0 1011.5 0.0
26/03:30pm 27.3 28.4 23.1 78 2.9 NE 22 28 12 15 1012.3 1011.8 0.0
26/03:00pm 27.6 29.4 23.2 77 3.0 NNE 19 26 10 14 1012.8 1012.2 0.0
26/02:30pm 27.9 29.5 23.3 76 3.2 NNE 20 26 11 14 1013.1 1012.5 0.0
26/02:00pm 28.2 30.2 23.6 76 3.2 NNE 19 24 10 13 1013.4 1012.8 0.0
26/01:30pm 28.0 30.2 23.2 75 3.3 NNE 17 24 9 13 1013.6 1013.0 0.0
26/01:00pm 28.7 32.0 23.8 75 3.4 NNE 13 20 7 11 1013.7 1013.1 0.0
26/12:30pm 27.6 30.9 23.8 80 2.6 N 13 19 7 10 1014.0 1013.4 0.0
26/12:00pm 27.7 30.5 23.7 79 2.8 N 15 20 8 11 1014.1 1013.5 0.0
26/11:30am 27.5 30.6 23.5 79 2.8 NNW 13 17 7 9 1014.4 1013.8 0.0
26/11:00am 26.9 30.0 22.9 79 2.7 NNW 11 17 6 9 1014.6 1014.0 0.0
26/10:30am 26.2 28.2 22.9 82 2.2 NNW 17 20 9 11 1014.8 1014.2 0.0
26/10:00am 26.2 28.3 23.1 83 2.1 NNW 17 17 9 9 1014.8 1014.2 0.0
26/09:30am 25.7 27.6 22.8 84 2.0 NNW 17 19 9 10 1014.8 1014.2 0.0
26/09:00am 25.7 28.3 22.6 83 2.1 NW 13 17 7 9 1014.9 1014.3 0.0
26/08:30am 25.8 28.2 22.9 84 2.0 NNW 15 17 8 9 1014.9 1014.3 0.0
26/08:00am 25.7 28.2 23.2 86 1.7 NNW 15 17 8 9 1014.9 1014.3 0.0
26/07:30am 25.4 27.9 23.1 87 1.6 NNW 15 19 8 10 1014.9 1014.3 0.0
26/07:00am 25.0 27.7 22.9 88 1.4 NW 13 17 7 9 1015.0 1014.4 0.0
26/06:30am 24.4 27.0 22.7 90 1.1 NNW 13 19 7 10 1014.7 1014.1 0.0
26/06:00am 24.2 26.3 22.5 90 1.1 NNW 15 20 8 11 1014.5 1013.9 0.0
26/05:30am 24.2 26.0 22.6 91 1.1 NNW 17 22 9 12 1014.1 1013.5 0.0
26/05:00am 24.2 26.0 22.6 91 1.1 NNW 17 22 9 12 1014.0 1013.4 0.0
26/04:30am 24.2 26.0 22.5 90 1.1 NNW 17 22 9 12 1013.7 1013.1 0.0
26/04:00am 24.3 25.7 22.6 90 1.1 NNW 19 24 10 13 1013.6 1013.0 0.0
26/03:30am 24.4 25.9 22.7 90 1.1 NNW 19 24 10 13 1013.3 1012.7 0.0
26/03:00am 24.5 26.1 22.8 90 1.1 N 19 24 10 13 1013.2 1012.6 0.0
26/02:30am 24.6 26.5 22.8 90 1.2 N 17 22 9 12 1013.2 1012.6 0.0
26/02:00am 24.5 26.1 22.8 90 1.1 N 19 24 10 13 1013.1 1012.5 0.0
26/01:30am 24.6 26.5 22.8 90 1.2 NNW 17 22 9 12 1013.2 1012.6 0.0
26/01:00am 24.6 26.2 22.8 90 1.2 NNW 19 26 10 14 1013.2 1012.6 0.0
26/12:30am 24.7 26.3 22.9 90 1.2 NNW 19 24 10 13 1013.3 1012.7 0.0
26/12:00am 24.9 26.4 23.0 89 1.3 N 20 24 11 13 1013.6 1013.0 0.0
 
Date/Time
EST
Temp
°C
App
Temp
°C
Dew
Point
°C
Rel
Hum
%
Delta-T
°C
Wind Press
QNH
hPa
Press
MSL
hPa
Rain since
9am
mm
Dir  Spd
km/h
Gust
km/h
Spd
kts
Gust
kts
25/11:30pm 24.9 26.3 22.8 88 1.4 N 20 26 11 14 1013.6 1013.0 0.0
25/11:00pm 24.9 25.5 22.8 88 1.4 N 24 30 13 16 1013.6 1013.0 0.0
25/10:30pm 24.9 26.4 23.0 89 1.3 N 20 26 11 14 1013.8 1013.2 0.0
25/10:00pm 25.0 26.6 23.2 90 1.2 NNW 20 28 11 15 1013.8 1013.2 0.0
25/09:30pm 25.0 26.4 22.9 88 1.4 N 20 24 11 13 1014.1 1013.5 0.0
25/09:00pm 25.1 25.8 23.0 88 1.4 N 24 30 13 16 1013.6 1013.0 0.0
25/08:30pm 25.1 24.9 22.8 87 1.6 N 28 37 15 20 1013.3 1012.7 0.0
25/08:00pm 25.1 26.3 23.2 89 1.3 N 22 30 12 16 1013.1 1012.5 0.0
25/07:30pm 25.1 26.7 23.2 89 1.3 N 20 28 11 15 1012.9 1012.3 0.0
25/07:00pm 25.2 26.6 22.9 87 1.6 N 20 30 11 16 1012.7 1012.1 0.0
25/06:30pm 25.6 27.3 23.1 86 1.7 N 19 26 10 14 1012.2 1011.7 0.0
25/06:00pm 25.6 26.9 22.7 84 2.0 NNE 20 30 11 16 1011.6 1011.1 0.0
25/05:30pm 25.8 26.9 22.3 81 2.4 NNE 20 26 11 14 1011.3 1010.8 0.0

Latest Capital City Observations: Canberra | Sydney | Melbourne | Brisbane | Adelaide | Perth | Hobart | Darwin

Other formats

Comma delimited format used in spreadsheet applications
http://www.bom.gov.au/fwo/IDQ60901/IDQ60901.94594.axf

JavaScript Object Notation format (JSON) in row-major order
http://www.bom.gov.au/fwo/IDQ60901/IDQ60901.94594.json

Data quality

Most of these data are generated automatically and are frequently updated. Quality checks on data are not normally performed. It is possible for incorrect values to appear. Refer to information at About Latest Weather Observations and please check the disclaimer before using these data.